createdAt,value
2018-01-19T00:00:26.397Z,71.36
2018-01-19T00:01:26.412Z,71.17
2018-01-19T00:02:26.408Z,71.17
2018-01-19T00:03:26.392Z,71.07
2018-01-19T00:04:26.446Z,71.45
2018-01-19T00:05:26.183Z,71.55
2018-01-19T00:06:26.451Z,71.45
2018-01-19T00:07:26.446Z,71.45
2018-01-19T00:08:26.444Z,71.55
2018-01-19T00:09:26.185Z,71.17
2018-01-19T00:10:26.237Z,71.07
2018-01-19T00:11:26.507Z,71.55
2018-01-19T00:12:26.521Z,71.36
2018-01-19T00:13:26.499Z,71.26
2018-01-19T00:14:26.260Z,71.36
2018-01-19T00:15:26.563Z,70.88
2018-01-19T00:16:26.284Z,71.17
2018-01-19T00:17:26.594Z,71.55
2018-01-19T00:18:26.563Z,71.55
2018-01-19T00:19:26.604Z,71.55
2018-01-19T00:20:26.638Z,71.17
2018-01-19T00:21:26.597Z,71.58
2018-01-19T00:22:26.629Z,71.64
2018-01-19T00:23:26.338Z,71.55
2018-01-19T00:24:26.620Z,72.11
2018-01-19T00:25:26.350Z,72.3
2018-01-19T00:26:26.392Z,71.73
2018-01-19T00:27:26.405Z,71.11
2018-01-19T00:28:26.673Z,71.17
2018-01-19T00:29:26.705Z,71.07
2018-01-19T00:30:26.729Z,71.36
2018-01-19T00:31:26.439Z,71.26
2018-01-19T00:32:26.706Z,71.07
2018-01-19T00:33:26.719Z,71.48
2018-01-19T00:34:26.729Z,71.55
2018-01-19T00:35:26.744Z,71.55
2018-01-19T00:36:26.493Z,70.78
2018-01-19T00:37:26.796Z,70.69
2018-01-19T00:38:26.772Z,70.98
2018-01-19T00:39:26.514Z,71.36
2018-01-19T00:40:26.519Z,71.07
2018-01-19T00:41:26.806Z,71.26
2018-01-19T00:42:26.833Z,70.98
2018-01-19T00:43:26.569Z,71.07
2018-01-19T00:44:26.580Z,71.17
2018-01-19T00:45:26.861Z,71.17
2018-01-19T00:46:26.871Z,71.26
2018-01-19T00:47:26.877Z,71.36
2018-01-19T00:48:26.623Z,71.26
2018-01-19T00:49:26.635Z,71.26
2018-01-19T00:50:26.635Z,71.07
2018-01-19T00:51:26.948Z,71.26
2018-01-19T00:52:26.928Z,71.07
2018-01-19T00:53:26.970Z,71.07
2018-01-19T00:54:26.999Z,71.26
2018-01-19T00:55:27.003Z,71.17
2018-01-19T00:56:26.692Z,71.36
2018-01-19T00:57:26.995Z,71.36
2018-01-19T00:58:26.733Z,71.55
2018-01-19T00:59:27.045Z,71.26
2018-01-19T01:00:27.069Z,70.78
2018-01-19T01:01:26.827Z,70.59
2018-01-19T01:02:27.037Z,71.55
2018-01-19T01:03:26.778Z,71.36
2018-01-19T01:04:26.800Z,71.26
2018-01-19T01:05:27.113Z,71.36
2018-01-19T01:06:26.882Z,71.26
2018-01-19T01:07:27.091Z,70.98
2018-01-19T01:08:27.116Z,70.98
2018-01-19T01:09:26.858Z,71.26
2018-01-19T01:10:27.166Z,71.07
2018-01-19T01:11:27.235Z,71.07
2018-01-19T01:12:27.149Z,71.07
2018-01-19T01:13:27.212Z,71.36
2018-01-19T01:14:26.910Z,71.26
2018-01-19T01:15:27.214Z,71.55
2018-01-19T01:16:26.909Z,71.55
2018-01-19T01:17:27.235Z,71.55
2018-01-19T01:18:27.246Z,71.55
2018-01-19T01:19:26.955Z,71.45
2018-01-19T01:20:26.955Z,71.55
2018-01-19T01:21:27.264Z,71.26
2018-01-19T01:22:27.301Z,71.17
2018-01-19T01:23:27.285Z,71.07
2018-01-19T01:24:27.310Z,70.98
2018-01-19T01:25:27.302Z,70.98
2018-01-19T01:26:27.037Z,70.92
2018-01-19T01:27:27.053Z,70.59
2018-01-19T01:28:27.056Z,70.88
2018-01-19T01:29:27.372Z,70.88
2018-01-19T01:30:27.388Z,70.88
2018-01-19T01:31:27.397Z,70.78
2018-01-19T01:32:27.111Z,71.36
2018-01-19T01:33:27.391Z,71.07
2018-01-19T01:34:27.143Z,71.3
2018-01-19T01:35:27.151Z,71.17
2018-01-19T01:36:27.163Z,71.26
2018-01-19T01:37:27.163Z,71.07
2018-01-19T01:38:27.476Z,71.36
2018-01-19T01:39:27.198Z,71.17
2018-01-19T01:40:27.498Z,71.07
2018-01-19T01:41:27.508Z,71.07
2018-01-19T01:42:27.510Z,71.17
2018-01-19T01:43:27.499Z,71.48
2018-01-19T01:44:27.235Z,71.39
2018-01-19T01:45:27.262Z,71.36
2018-01-19T01:46:27.523Z,71.58
2018-01-19T01:47:27.573Z,71.58
2018-01-19T01:48:27.295Z,72.34
2018-01-19T01:49:27.287Z,72.02
2018-01-19T01:50:27.307Z,71.96
2018-01-19T01:51:27.613Z,71.77
2018-01-19T01:52:27.597Z,72.06
2018-01-19T01:53:27.629Z,71.48
2018-01-19T01:54:27.620Z,71.77
2018-01-19T01:55:27.652Z,71.01
2018-01-19T01:56:27.664Z,71.3
2018-01-19T01:57:27.674Z,71.39
2018-01-19T01:58:27.702Z,71.3
2018-01-19T01:59:27.394Z,71.58
2018-01-19T02:00:27.706Z,71.58
2018-01-19T02:01:27.687Z,71.58
2018-01-19T02:02:27.700Z,71.58
2018-01-19T02:03:27.748Z,71.58
2018-01-19T02:04:27.762Z,71.67
2018-01-19T02:05:27.466Z,71.39
2018-01-19T02:06:27.775Z,71.58
2018-01-19T02:07:27.764Z,71.3
2018-01-19T02:08:27.484Z,71.3
2018-01-19T02:09:27.810Z,71.11
2018-01-19T02:10:27.835Z,71.58
2018-01-19T02:11:27.812Z,71.3
2018-01-19T02:12:27.539Z,71.11
2018-01-19T02:13:28.442Z,71.39
2018-01-19T02:14:27.561Z,71.3
2018-01-19T02:15:27.594Z,71.39
2018-01-19T02:16:27.896Z,71.3
2018-01-19T02:17:27.600Z,71.3
2018-01-19T02:18:27.607Z,71.11
2018-01-19T02:19:27.929Z,71.58
2018-01-19T02:20:27.649Z,71.48
2018-01-19T02:21:27.945Z,71.86
2018-01-19T02:22:27.638Z,72.34
2018-01-19T02:23:27.962Z,72.06
2018-01-19T02:24:27.686Z,72.06
2018-01-19T02:25:27.701Z,71.67
2018-01-19T02:26:27.974Z,71.67
2018-01-19T02:27:27.717Z,72.06
2018-01-19T02:28:27.727Z,71.48
2018-01-19T02:29:27.717Z,71.77
2018-01-19T02:30:28.019Z,71.2
2018-01-19T02:31:27.740Z,71.2
2018-01-19T02:32:27.770Z,71.2
2018-01-19T02:33:28.051Z,71.2
2018-01-19T02:34:28.063Z,71.39
2018-01-19T02:35:27.805Z,71.3
2018-01-19T02:36:27.827Z,71.3
2018-01-19T02:37:27.806Z,71.3
2018-01-19T02:38:27.841Z,71.48
2018-01-19T02:39:27.839Z,71.11
2018-01-19T02:40:28.159Z,71.3
2018-01-19T02:41:28.174Z,71.48
2018-01-19T02:42:27.873Z,71.58
2018-01-19T02:43:27.893Z,71.77
2018-01-19T02:44:28.195Z,71.39
2018-01-19T02:45:28.223Z,71.01
2018-01-19T02:46:27.917Z,71.3
2018-01-19T02:47:27.927Z,71.39
2018-01-19T02:48:28.263Z,71.11
2018-01-19T02:49:28.254Z,71.3
2018-01-19T02:50:27.953Z,71.3
2018-01-19T02:51:28.253Z,71.58
2018-01-19T02:52:27.981Z,71.67
2018-01-19T02:53:28.020Z,71.77
2018-01-19T02:54:28.017Z,71.77
2018-01-19T02:55:28.006Z,71.96
2018-01-19T02:56:28.340Z,71.58
2018-01-19T02:57:28.145Z,71.77
2018-01-19T02:58:28.338Z,71.67
2018-01-19T02:59:28.339Z,71.58
2018-01-19T03:00:28.346Z,71.67
2018-01-19T03:01:28.559Z,71.67
2018-01-19T03:02:28.083Z,71.67
2018-01-19T03:03:28.391Z,71.58
2018-01-19T03:04:28.398Z,71.39
2018-01-19T03:05:28.430Z,71.39
2018-01-19T03:06:28.159Z,71.2
2018-01-19T03:07:28.173Z,71.39
2018-01-19T03:08:28.429Z,71.11
2018-01-19T03:09:28.196Z,71.01
2018-01-19T03:10:28.204Z,71.39
2018-01-19T03:11:28.195Z,71.11
2018-01-19T03:12:28.217Z,71.39
2018-01-19T03:13:28.257Z,70.63
2018-01-19T03:14:28.520Z,70.82
2018-01-19T03:15:28.541Z,70.92
2018-01-19T03:16:28.263Z,70.73
2018-01-19T03:17:28.571Z,70.82
2018-01-19T03:18:28.666Z,71.11
2018-01-19T03:19:28.562Z,70.82
2018-01-19T03:20:28.304Z,71.01
2018-01-19T03:21:28.324Z,71.01
2018-01-19T03:22:28.626Z,71.01
2018-01-19T03:23:28.317Z,71.11
2018-01-19T03:24:28.347Z,70.54
2018-01-19T03:25:28.651Z,70.44
2018-01-19T03:26:28.373Z,70.54
2018-01-19T03:27:28.684Z,70.44
2018-01-19T03:28:28.661Z,70.35
2018-01-19T03:29:28.424Z,70.54
2018-01-19T03:30:28.708Z,70.44
2018-01-19T03:31:28.734Z,70.44
2018-01-19T03:32:28.705Z,70.5
2018-01-19T03:33:28.760Z,69.84
2018-01-19T03:34:28.748Z,69.93
2018-01-19T03:35:28.788Z,70.12
2018-01-19T03:36:28.471Z,70.21
2018-01-19T03:37:28.481Z,70.21
2018-01-19T03:38:29.455Z,70.12
2018-01-19T03:39:28.515Z,70.31
2018-01-19T03:40:28.508Z,70.31
2018-01-19T03:41:28.514Z,69.84
2018-01-19T03:42:28.819Z,69.84
2018-01-19T03:43:28.867Z,70.03
2018-01-19T03:44:28.551Z,69.65
2018-01-19T03:45:28.870Z,69.93
2018-01-19T03:46:28.580Z,69.74
2018-01-19T03:47:28.580Z,70.03
2018-01-19T03:48:28.895Z,70.31
2018-01-19T03:49:28.915Z,69.93
2018-01-19T03:50:28.898Z,70.31
2018-01-19T03:51:28.916Z,70.21
2018-01-19T03:52:28.947Z,70.03
2018-01-19T03:53:28.926Z,70.31
2018-01-19T03:54:28.938Z,70.4
2018-01-19T03:55:28.681Z,70.4
2018-01-19T03:56:28.681Z,70.12
2018-01-19T03:57:29.045Z,70.5
2018-01-19T03:58:28.713Z,70.5
2018-01-19T03:59:28.719Z,70.31
2018-01-19T04:00:28.745Z,70.4
2018-01-19T04:01:29.032Z,69.84
2018-01-19T04:02:29.026Z,70.03
2018-01-19T04:03:28.768Z,69.74
2018-01-19T04:04:29.056Z,69.84
2018-01-19T04:05:29.076Z,70.03
2018-01-19T04:06:29.115Z,70.25
2018-01-19T04:07:28.800Z,70.03
2018-01-19T04:08:28.836Z,70.03
2018-01-19T04:09:29.127Z,70.21
2018-01-19T04:10:28.855Z,70.31
2018-01-19T04:11:28.845Z,70.5
2018-01-19T04:12:28.888Z,70.5
2018-01-19T04:13:28.878Z,70.5
2018-01-19T04:14:28.950Z,70.69
2018-01-19T04:15:28.909Z,70.54
2018-01-19T04:16:29.214Z,70.59
2018-01-19T04:17:28.945Z,70.88
2018-01-19T04:18:29.210Z,71.07
2018-01-19T04:19:29.212Z,71.01
2018-01-19T04:20:28.944Z,70.82
2018-01-19T04:21:29.278Z,71.01
2018-01-19T04:22:29.287Z,70.82
2018-01-19T04:23:29.290Z,70.82
2018-01-19T04:24:29.273Z,70.82
2018-01-19T04:25:29.319Z,71.01
2018-01-19T04:26:29.024Z,71.11
2018-01-19T04:27:29.345Z,70.92
2018-01-19T04:28:29.358Z,71.11
2018-01-19T04:29:29.326Z,71.11
2018-01-19T04:30:29.381Z,71.11
2018-01-19T04:31:29.108Z,70.92
2018-01-19T04:32:29.087Z,71.11
2018-01-19T04:33:29.101Z,70.92
2018-01-19T04:34:29.114Z,70.82
2018-01-19T04:35:29.120Z,70.92
2018-01-19T04:36:29.152Z,70.82
2018-01-19T04:37:29.141Z,71.01
2018-01-19T04:38:29.432Z,70.63
2018-01-19T04:39:29.465Z,70.82
2018-01-19T04:40:29.487Z,71.11
2018-01-19T04:41:29.505Z,71.11
2018-01-19T04:42:29.209Z,70.82
2018-01-19T04:43:29.520Z,71.3
2018-01-19T04:44:29.488Z,71.01
2018-01-19T04:45:29.500Z,71.3
2018-01-19T04:46:29.545Z,71.39
2018-01-19T04:47:29.533Z,71.2
2018-01-19T04:48:29.254Z,71.2
2018-01-19T04:49:29.552Z,71.01
2018-01-19T04:50:29.306Z,70.63
2018-01-19T04:51:29.577Z,70.73
2018-01-19T04:52:29.343Z,71.01
2018-01-19T04:53:29.600Z,70.82
2018-01-19T04:54:29.600Z,71.01
2018-01-19T04:55:29.651Z,71.48
2018-01-19T04:56:29.653Z,71.3
2018-01-19T04:57:29.364Z,71.48
2018-01-19T04:58:29.642Z,71.39
2018-01-19T04:59:29.373Z,71.48
2018-01-19T05:00:29.405Z,71.48
2018-01-19T05:01:29.408Z,71.48
2018-01-19T05:02:29.417Z,71.48
2018-01-19T05:03:29.709Z,71.11
2018-01-19T05:04:29.711Z,71.01
2018-01-19T05:05:29.809Z,71.39
2018-01-19T05:06:29.463Z,71.48
2018-01-19T05:07:29.474Z,71.3
2018-01-19T05:08:29.796Z,71.48
2018-01-19T05:09:29.514Z,71.11
2018-01-19T05:10:29.886Z,71.11
2018-01-19T05:11:29.519Z,71.11
2018-01-19T05:12:29.807Z,71.39
2018-01-19T05:13:29.833Z,71.11
2018-01-19T05:14:29.818Z,71.11
2018-01-19T05:15:29.840Z,71.3
2018-01-19T05:16:29.841Z,71.11
2018-01-19T05:17:29.855Z,71.11
2018-01-19T05:18:29.656Z,71.3
2018-01-19T05:19:29.605Z,71.01
2018-01-19T05:20:29.897Z,71.2
2018-01-19T05:21:29.643Z,71.39
2018-01-19T05:22:29.908Z,71.3
2018-01-19T05:23:29.960Z,71.2
2018-01-19T05:24:29.670Z,71.39
2018-01-19T05:25:30.122Z,71.39
2018-01-19T05:26:29.993Z,71.2
2018-01-19T05:27:29.695Z,71.2
2018-01-19T05:28:30.017Z,71.11
2018-01-19T05:29:30.026Z,71.39
2018-01-19T05:30:29.998Z,71.39
2018-01-19T05:31:29.759Z,71.39
2018-01-19T05:32:29.769Z,71.39
2018-01-19T05:33:29.749Z,71.39
2018-01-19T05:34:29.785Z,71.58
2018-01-19T05:35:30.093Z,71.58
2018-01-19T05:36:30.075Z,71.48
2018-01-19T05:37:30.085Z,71.01
2018-01-19T05:38:29.805Z,71.3
2018-01-19T05:39:29.847Z,71.48
2018-01-19T05:40:29.998Z,71.48
2018-01-19T05:41:29.840Z,71.58
2018-01-19T05:42:30.172Z,71.48
2018-01-19T05:43:29.891Z,71.48
2018-01-19T05:44:30.251Z,71.48
2018-01-19T05:45:29.882Z,71.58
2018-01-19T05:46:29.914Z,71.01
2018-01-19T05:47:30.216Z,71.01
2018-01-19T05:48:30.197Z,71.11
2018-01-19T05:49:29.936Z,71.01
2018-01-19T05:50:30.014Z,70.63
2018-01-19T05:51:29.948Z,71.3
2018-01-19T05:52:29.969Z,71.58
2018-01-19T05:53:30.292Z,71.39
2018-01-19T05:54:30.261Z,71.11
2018-01-19T05:55:30.360Z,70.73
2018-01-19T05:56:30.298Z,70.63
2018-01-19T05:57:30.305Z,70.63
2018-01-19T05:58:30.348Z,70.63
2018-01-19T05:59:30.059Z,70.63
2018-01-19T06:00:30.059Z,70.63
2018-01-19T06:01:30.377Z,70.92
2018-01-19T06:02:30.093Z,70.92
2018-01-19T06:03:30.380Z,70.82
2018-01-19T06:04:30.114Z,70.63
2018-01-19T06:05:30.456Z,71.11
2018-01-19T06:06:30.408Z,70.92
2018-01-19T06:07:30.159Z,71.01
2018-01-19T06:08:30.448Z,70.82
2018-01-19T06:09:30.159Z,71.01
2018-01-19T06:10:30.213Z,71.11
2018-01-19T06:11:30.202Z,71.01
2018-01-19T06:12:30.473Z,71.01
2018-01-19T06:13:30.483Z,71.11
2018-01-19T06:14:30.545Z,71.2
2018-01-19T06:15:30.509Z,71.2
2018-01-19T06:16:30.519Z,70.82
2018-01-19T06:17:30.562Z,71.01
2018-01-19T06:18:30.559Z,71.01
2018-01-19T06:19:30.585Z,71.01
2018-01-19T06:20:30.561Z,70.92
2018-01-19T06:21:30.307Z,71.01
2018-01-19T06:22:30.291Z,71.11
2018-01-19T06:23:30.324Z,70.92
2018-01-19T06:24:30.313Z,70.92
2018-01-19T06:25:30.327Z,70.92
2018-01-19T06:26:30.358Z,70.92
2018-01-19T06:27:30.368Z,70.63
2018-01-19T06:28:30.371Z,71.11
2018-01-19T06:29:30.392Z,71.11
2018-01-19T06:30:30.382Z,71.01
2018-01-19T06:31:30.412Z,70.63
2018-01-19T06:32:30.684Z,70.73
2018-01-19T06:33:30.738Z,70.63
2018-01-19T06:34:30.446Z,70.73
2018-01-19T06:35:30.437Z,70.44
2018-01-19T06:36:30.479Z,70.35
2018-01-19T06:37:30.780Z,70.44
2018-01-19T06:38:30.760Z,70.54
2018-01-19T06:39:30.807Z,70.44
2018-01-19T06:40:30.809Z,70.54
2018-01-19T06:41:30.502Z,70.82
2018-01-19T06:42:30.795Z,70.82
2018-01-19T06:43:30.847Z,71.01
2018-01-19T06:44:30.827Z,71.01
2018-01-19T06:45:30.837Z,71.01
2018-01-19T06:46:30.881Z,71.01
2018-01-19T06:47:30.849Z,71.01
2018-01-19T06:48:30.601Z,70.92
2018-01-19T06:49:30.912Z,70.92
2018-01-19T06:50:30.623Z,70.92
2018-01-19T06:51:30.625Z,71.11
2018-01-19T06:52:30.624Z,71.11
2018-01-19T06:53:30.635Z,71.01
2018-01-19T06:54:30.964Z,71.01
2018-01-19T06:55:30.657Z,70.63
2018-01-19T06:56:30.951Z,70.82
2018-01-19T06:57:30.710Z,71.11
2018-01-19T06:58:30.981Z,71.01
2018-01-19T06:59:30.701Z,71.11
2018-01-19T07:00:31.039Z,70.92
2018-01-19T07:01:31.017Z,70.92
2018-01-19T07:02:30.757Z,71.01
2018-01-19T07:03:31.035Z,70.92
2018-01-19T07:04:30.769Z,70.82
2018-01-19T07:05:30.778Z,71.58
2018-01-19T07:06:30.938Z,71.48
2018-01-19T07:07:30.820Z,71.39
2018-01-19T07:08:31.120Z,71.58
2018-01-19T07:09:30.822Z,71.39
2018-01-19T07:10:30.844Z,71.11
2018-01-19T07:11:30.904Z,71.48
2018-01-19T07:12:31.142Z,71.11
2018-01-19T07:13:30.877Z,71.11
2018-01-19T07:14:31.177Z,71.48
2018-01-19T07:15:31.192Z,71.01
2018-01-19T07:16:30.920Z,71.48
2018-01-19T07:17:31.178Z,71.39
2018-01-19T07:18:31.233Z,71.58
2018-01-19T07:19:30.942Z,71.48
2018-01-19T07:20:30.933Z,71.58
2018-01-19T07:21:31.262Z,71.39
2018-01-19T07:22:30.956Z,71.48
2018-01-19T07:23:31.250Z,71.39
2018-01-19T07:24:31.257Z,71.2
2018-01-19T07:25:31.298Z,71.3
2018-01-19T07:26:31.012Z,71.39
2018-01-19T07:27:31.321Z,71.39
2018-01-19T07:28:31.043Z,71.39
2018-01-19T07:29:31.344Z,71.11
2018-01-19T07:30:31.065Z,71.3
2018-01-19T07:31:31.368Z,71.11
2018-01-19T07:32:31.387Z,71.3
2018-01-19T07:33:31.368Z,71.39
2018-01-19T07:34:31.402Z,71.11
2018-01-19T07:35:31.120Z,71.39
2018-01-19T07:36:31.484Z,71.2
2018-01-19T07:37:31.134Z,71.39
2018-01-19T07:38:31.444Z,71.39
2018-01-19T07:39:31.159Z,71.39
2018-01-19T07:40:31.491Z,71.3
2018-01-19T07:41:31.233Z,71.58
2018-01-19T07:42:31.459Z,71.58
2018-01-19T07:43:31.478Z,71.67
2018-01-19T07:44:31.522Z,71.58
2018-01-19T07:45:31.533Z,72.34
2018-01-19T07:46:31.281Z,72.15
2018-01-19T07:47:31.545Z,71.48
2018-01-19T07:48:31.528Z,71.58
2018-01-19T07:49:31.577Z,71.58
2018-01-19T07:50:31.555Z,71.58
2018-01-19T07:51:31.658Z,71.86
2018-01-19T07:52:31.611Z,72.06
2018-01-19T07:53:31.655Z,71.96
2018-01-19T07:54:31.622Z,71.86
2018-01-19T07:55:31.637Z,72.15
2018-01-19T07:56:31.385Z,72.06
2018-01-19T07:57:31.343Z,72.06
2018-01-19T07:58:31.378Z,71.86
2018-01-19T07:59:31.370Z,71.96
2018-01-19T08:00:31.669Z,71.96
2018-01-19T08:01:31.438Z,71.86
2018-01-19T08:02:31.710Z,71.96
2018-01-19T08:03:31.734Z,71.86
2018-01-19T08:04:31.734Z,71.96
2018-01-19T08:05:31.443Z,71.77
2018-01-19T08:06:31.477Z,71.77
2018-01-19T08:07:31.466Z,71.86
2018-01-19T08:08:31.497Z,71.77
2018-01-19T08:09:31.498Z,71.96
2018-01-19T08:10:31.489Z,71.96
2018-01-19T08:11:31.793Z,71.96
2018-01-19T08:12:31.804Z,71.96
2018-01-19T08:13:31.547Z,71.77
2018-01-19T08:14:31.534Z,71.77
2018-01-19T08:15:31.868Z,71.86
2018-01-19T08:16:31.877Z,72.15
2018-01-19T08:17:31.568Z,72.15
2018-01-19T08:18:31.893Z,72.06
2018-01-19T08:19:31.611Z,72.25
2018-01-19T08:20:31.911Z,71.86
2018-01-19T08:21:31.662Z,71.77
2018-01-19T08:22:31.641Z,71.86
2018-01-19T08:23:31.649Z,71.77
2018-01-19T08:24:31.959Z,71.67
2018-01-19T08:25:31.679Z,71.86
2018-01-19T08:26:32.013Z,71.77
2018-01-19T08:27:31.699Z,71.96
2018-01-19T08:28:31.692Z,71.77
2018-01-19T08:29:31.984Z,72.15
2018-01-19T08:30:32.038Z,72.19
2018-01-19T08:31:32.047Z,72.19
2018-01-19T08:32:32.062Z,71.9
2018-01-19T08:33:31.758Z,72.09
2018-01-19T08:34:32.040Z,71.9
2018-01-19T08:35:32.096Z,72.09
2018-01-19T08:36:32.092Z,71.81
2018-01-19T08:37:31.825Z,72.09
2018-01-19T08:38:32.094Z,71.43
2018-01-19T08:39:31.836Z,71.62
2018-01-19T08:40:31.829Z,71.52
2018-01-19T08:41:31.858Z,71.71
2018-01-19T08:42:31.870Z,71.52
2018-01-19T08:43:31.884Z,71.23
2018-01-19T08:44:32.191Z,71.52
2018-01-19T08:45:31.919Z,71.52
2018-01-19T08:46:31.905Z,71.33
2018-01-19T08:47:31.936Z,71.14
2018-01-19T08:48:31.921Z,71.23
2018-01-19T08:49:32.276Z,70.95
2018-01-19T08:50:32.224Z,71.14
2018-01-19T08:51:31.953Z,71.14
2018-01-19T08:52:31.985Z,71.23
2018-01-19T08:53:31.987Z,70.57
2018-01-19T08:54:31.998Z,70.86
2018-01-19T08:55:32.009Z,70.86
2018-01-19T08:56:32.045Z,70.57
2018-01-19T08:57:32.336Z,70.57
2018-01-19T08:58:32.048Z,70.76
2018-01-19T08:59:32.368Z,70.38
2018-01-19T09:00:32.377Z,70.48
2018-01-19T09:01:32.361Z,70.76
2018-01-19T09:02:32.101Z,70.38
2018-01-19T09:03:32.122Z,70.57
2018-01-19T09:04:32.425Z,70.1
2018-01-19T09:05:32.114Z,70.29
2018-01-19T09:06:32.137Z,70.48
2018-01-19T09:07:32.175Z,70.57
2018-01-19T09:08:32.447Z,70.57
2018-01-19T09:09:32.182Z,70.76
2018-01-19T09:10:32.177Z,70.57
2018-01-19T09:11:32.468Z,70.67
2018-01-19T09:12:32.511Z,70.67
2018-01-19T09:13:32.490Z,70.29
2018-01-19T09:14:32.501Z,70.48
2018-01-19T09:15:32.268Z,70.48
2018-01-19T09:16:32.525Z,70.38
2018-01-19T09:17:32.256Z,70.86
2018-01-19T09:18:32.288Z,70.76
2018-01-19T09:19:32.592Z,70.86
2018-01-19T09:20:32.297Z,70.76
2018-01-19T09:21:32.335Z,70.67
2018-01-19T09:22:32.604Z,70.29
2018-01-19T09:23:32.606Z,70.29
2018-01-19T09:24:32.359Z,70.38
2018-01-19T09:25:32.674Z,70.76
2018-01-19T09:26:32.365Z,70.86
2018-01-19T09:27:32.687Z,70.76
2018-01-19T09:28:32.698Z,70.76
2018-01-19T09:29:32.682Z,70.76
2018-01-19T09:30:32.424Z,70.57
2018-01-19T09:31:32.753Z,70.86
2018-01-19T09:32:32.758Z,70.86
2018-01-19T09:33:32.464Z,70.76
2018-01-19T09:34:32.476Z,70.67
2018-01-19T09:35:32.486Z,70.57
2018-01-19T09:36:32.770Z,70.57
2018-01-19T09:37:32.784Z,70.76
2018-01-19T09:38:32.783Z,70.86
2018-01-19T09:39:32.839Z,70.57
2018-01-19T09:40:32.558Z,70.57
2018-01-19T09:41:32.819Z,70.57
2018-01-19T09:42:32.910Z,70.38
2018-01-19T09:43:32.581Z,70.42
2018-01-19T09:44:32.631Z,70.38
2018-01-19T09:45:32.587Z,69.75
2018-01-19T09:46:32.599Z,70
2018-01-19T09:47:32.670Z,70.19
2018-01-19T09:48:32.912Z,70.23
2018-01-19T09:49:32.913Z,70
2018-01-19T09:50:33.017Z,70.04
2018-01-19T09:51:32.654Z,69.85
2018-01-19T09:52:32.978Z,69.75
2018-01-19T09:53:32.712Z,69.18
2018-01-19T09:54:32.727Z,69.18
2018-01-19T09:55:32.704Z,69.09
2018-01-19T09:56:32.998Z,69.27
2018-01-19T09:57:33.101Z,69.18
2018-01-19T09:58:32.738Z,68.9
2018-01-19T09:59:33.032Z,69.09
2018-01-19T10:00:33.075Z,69.09
2018-01-19T10:01:33.103Z,69.09
2018-01-19T10:02:33.135Z,69.09
2018-01-19T10:03:33.091Z,68.23
2018-01-19T10:04:33.102Z,68.86
2018-01-19T10:05:32.835Z,68.33
2018-01-19T10:06:32.835Z,68.39
2018-01-19T10:07:33.164Z,68.52
2018-01-19T10:08:32.881Z,68.52
2018-01-19T10:09:32.888Z,68.48
2018-01-19T10:10:32.916Z,68.58
2018-01-19T10:11:33.177Z,68.13
2018-01-19T10:12:33.238Z,68.04
2018-01-19T10:13:32.951Z,68.71
2018-01-19T10:14:32.941Z,68.23
2018-01-19T10:15:32.978Z,68.23
2018-01-19T10:16:32.990Z,68.58
2018-01-19T10:17:33.309Z,68.61
2018-01-19T10:18:33.006Z,68.42
2018-01-19T10:19:33.330Z,67.47
2018-01-19T10:20:33.295Z,67.28
2018-01-19T10:21:33.049Z,67.28
2018-01-19T10:22:33.399Z,67.47
2018-01-19T10:23:33.334Z,67.28
2018-01-19T10:24:33.073Z,67.57
2018-01-19T10:25:33.087Z,67.47
2018-01-19T10:26:33.096Z,67.85
2018-01-19T10:27:33.161Z,67.76
2018-01-19T10:28:33.378Z,68.42
2018-01-19T10:29:33.121Z,68.42
2018-01-19T10:30:33.124Z,67.94
2018-01-19T10:31:33.448Z,68.04
2018-01-19T10:32:33.521Z,68.04
2018-01-19T10:33:33.485Z,67.94
2018-01-19T10:34:33.173Z,68.13
2018-01-19T10:35:33.495Z,68.33
2018-01-19T10:36:33.210Z,68.42
2018-01-19T10:37:33.487Z,68.52
2018-01-19T10:38:33.534Z,68.42
2018-01-19T10:39:33.242Z,68.23
2018-01-19T10:40:33.246Z,68.13
2018-01-19T10:41:33.256Z,68.33
2018-01-19T10:42:33.612Z,67.94
2018-01-19T10:43:33.303Z,67.94
2018-01-19T10:44:33.575Z,68.23
2018-01-19T10:45:33.598Z,68.9
2018-01-19T10:46:33.318Z,68.42
2018-01-19T10:47:33.610Z,68.42
2018-01-19T10:48:33.362Z,67.94
2018-01-19T10:49:33.395Z,68.33
2018-01-19T10:50:33.374Z,68.61
2018-01-19T10:51:33.400Z,68.52
2018-01-19T10:52:33.674Z,68.52
2018-01-19T10:53:33.413Z,68.23
2018-01-19T10:54:33.482Z,68.04
2018-01-19T10:55:33.716Z,68.8
2018-01-19T10:56:33.767Z,69.18
2018-01-19T10:57:33.473Z,68.33
2018-01-19T10:58:33.498Z,68.9
2018-01-19T10:59:33.487Z,69.18
2018-01-19T11:00:33.771Z,69.09
2018-01-19T11:01:33.535Z,69.18
2018-01-19T11:02:33.534Z,69.09
2018-01-19T11:03:33.548Z,68.33
2018-01-19T11:04:33.548Z,68.52
2018-01-19T11:05:33.875Z,68.42
2018-01-19T11:06:33.855Z,68.61
2018-01-19T11:07:33.891Z,68.46
2018-01-19T11:08:33.587Z,68.46
2018-01-19T11:09:33.682Z,68.46
2018-01-19T11:10:33.634Z,68.74
2018-01-19T11:11:33.633Z,68.36
2018-01-19T11:12:33.952Z,68.23
2018-01-19T11:13:33.681Z,68.23
2018-01-19T11:14:33.683Z,67.88
2018-01-19T11:15:33.964Z,67.88
2018-01-19T11:16:33.686Z,68.17
2018-01-19T11:17:34.033Z,68.07
2018-01-19T11:18:33.726Z,67.69
2018-01-19T11:19:33.783Z,67.5
2018-01-19T11:20:33.768Z,67.32
2018-01-19T11:21:34.070Z,67.32
2018-01-19T11:22:33.772Z,67.5
2018-01-19T11:23:34.088Z,67.6
2018-01-19T11:24:34.081Z,67.32
2018-01-19T11:25:34.109Z,67.69
2018-01-19T11:26:33.814Z,67.32
2018-01-19T11:27:33.840Z,67.6
2018-01-19T11:28:34.147Z,67.6
2018-01-19T11:29:34.138Z,67.69
2018-01-19T11:30:34.182Z,67.6
2018-01-19T11:31:33.875Z,67.32
2018-01-19T11:32:34.218Z,67.03
2018-01-19T11:33:34.211Z,66.84
2018-01-19T11:34:33.930Z,67.41
2018-01-19T11:35:34.208Z,66.94
2018-01-19T11:36:33.966Z,66.84
2018-01-19T11:37:33.946Z,66.84
2018-01-19T11:38:34.242Z,66.74
2018-01-19T11:39:34.008Z,66.55
2018-01-19T11:40:34.302Z,66.55
2018-01-19T11:41:34.024Z,66.55
2018-01-19T11:42:34.341Z,67.03
2018-01-19T11:43:34.035Z,66.94
2018-01-19T11:44:34.346Z,66.94
2018-01-19T11:45:34.363Z,67.13
2018-01-19T11:46:34.084Z,67.22
2018-01-19T11:47:34.355Z,67.03
2018-01-19T11:48:34.402Z,67.03
2018-01-19T11:49:34.382Z,67.03
2018-01-19T11:50:34.424Z,66.84
2018-01-19T11:51:34.435Z,67.41
2018-01-19T11:52:34.138Z,67.03
2018-01-19T11:53:34.432Z,66.55
2018-01-19T11:54:34.494Z,67.03
2018-01-19T11:55:34.187Z,66.94
2018-01-19T11:56:34.481Z,66.65
2018-01-19T11:57:34.517Z,66.94
2018-01-19T11:58:34.541Z,66.55
2018-01-19T11:59:34.510Z,66.55
2018-01-19T12:00:34.254Z,66.94
2018-01-19T12:01:34.578Z,66.55
2018-01-19T12:02:34.276Z,66.74
2018-01-19T12:03:34.657Z,66.94
2018-01-19T12:04:34.304Z,66.84
2018-01-19T12:05:34.597Z,66.84
2018-01-19T12:06:34.327Z,66.84
2018-01-19T12:07:34.354Z,66.84
2018-01-19T12:08:34.377Z,67.13
2018-01-19T12:09:34.648Z,66.55
2018-01-19T12:10:34.393Z,67.13
2018-01-19T12:11:34.414Z,67.22
2018-01-19T12:12:34.428Z,66.94
2018-01-19T12:13:34.492Z,66.94
2018-01-19T12:14:34.747Z,66.65
2018-01-19T12:15:34.715Z,66.65
2018-01-19T12:16:34.467Z,66.74
2018-01-19T12:17:34.783Z,66.84
2018-01-19T12:18:34.784Z,66.94
2018-01-19T12:19:34.518Z,66.84
2018-01-19T12:20:34.822Z,66.68
2018-01-19T12:21:34.825Z,66.65
2018-01-19T12:22:34.550Z,66.84
2018-01-19T12:23:34.589Z,66.87
2018-01-19T12:24:34.586Z,67.07
2018-01-19T12:25:34.862Z,66.59
2018-01-19T12:26:34.602Z,66.59
2018-01-19T12:27:34.604Z,67.16
2018-01-19T12:28:34.883Z,67.07
2018-01-19T12:29:34.630Z,67.16
2018-01-19T12:30:34.911Z,66.87
2018-01-19T12:31:34.674Z,67.25
2018-01-19T12:32:34.936Z,67.16
2018-01-19T12:33:34.706Z,66.97
2018-01-19T12:34:34.705Z,66.49
2018-01-19T12:35:35.005Z,67.07
2018-01-19T12:36:34.728Z,66.78
2018-01-19T12:37:35.041Z,66.68
2018-01-19T12:38:35.077Z,66.49
2018-01-19T12:39:35.069Z,66.2
2018-01-19T12:40:35.042Z,66.3
2018-01-19T12:41:35.073Z,66.68
2018-01-19T12:42:35.111Z,66.87
2018-01-19T12:43:35.170Z,66.68
2018-01-19T12:44:35.144Z,66.39
2018-01-19T12:45:35.121Z,66.2
2018-01-19T12:46:34.850Z,66.87
2018-01-19T12:47:34.869Z,66.59
2018-01-19T12:48:34.900Z,66.39
2018-01-19T12:49:34.913Z,66.49
2018-01-19T12:50:34.911Z,66.39
2018-01-19T12:51:34.939Z,66.39
2018-01-19T12:52:35.232Z,66.49
2018-01-19T12:53:34.932Z,66.59
2018-01-19T12:54:35.271Z,66.49
2018-01-19T12:55:34.971Z,66.2